createdAt,value
2023-03-29T00:03:52.048Z,100926.96
2023-03-29T00:08:56.582Z,100931.13
2023-03-29T00:13:58.174Z,100930.10
2023-03-29T00:18:59.765Z,100930.40
2023-03-29T00:24:01.526Z,100928.48
2023-03-29T00:29:03.590Z,100927.33
2023-03-29T00:34:05.115Z,100925.26
2023-03-29T00:39:06.993Z,100928.46
2023-03-29T00:44:47.542Z,100932.52
2023-03-29T00:49:50.529Z,100933.38
2023-03-29T00:54:55.205Z,100937.03
2023-03-29T00:59:58.737Z,100935.73
2023-03-29T01:05:10.498Z,100937.99
2023-03-29T01:10:27.214Z,100939.21
2023-03-29T01:15:29.457Z,100940.41
2023-03-29T01:20:38.795Z,100940.48
2023-03-29T01:26:13.043Z,100936.69
2023-03-29T01:31:26.845Z,100935.40
2023-03-29T01:36:38.788Z,100935.02
2023-03-29T01:41:53.968Z,100935.23
2023-03-29T01:47:08.717Z,100930.85
2023-03-29T01:52:19.090Z,100933.48
2023-03-29T01:57:25.180Z,100935.79
2023-03-29T02:02:31.015Z,100938.95
2023-03-29T02:07:37.472Z,100939.07
2023-03-29T02:12:39.449Z,100942.35
2023-03-29T02:17:42.756Z,100940.80
2023-03-29T02:22:57.065Z,100942.79
2023-03-29T02:28:01.830Z,100945.68
2023-03-29T02:33:15.767Z,100947.38
2023-03-29T02:38:17.361Z,100948.59
2023-03-29T02:43:22.634Z,100945.83
2023-03-29T02:48:28.274Z,100952.64
2023-03-29T02:53:41.427Z,100950.95
2023-03-29T02:58:42.927Z,100952.27
2023-03-29T03:03:45.367Z,100951.79
2023-03-29T03:08:47.090Z,100956.63
2023-03-29T03:13:48.592Z,100959.13
2023-03-29T03:18:51.893Z,100960.10
2023-03-29T03:23:54.893Z,100962.02
2023-03-29T03:28:57.801Z,100965.73
2023-03-29T03:33:59.926Z,100965.95
2023-03-29T03:39:03.186Z,100969.73
2023-03-29T03:44:04.879Z,100969.59
2023-03-29T03:49:06.385Z,100967.42
2023-03-29T03:54:08.119Z,100972.88
2023-03-29T03:59:09.629Z,100978.20
2023-03-29T04:04:12.178Z,100981.23
2023-03-29T04:09:13.782Z,100981.16
2023-03-29T04:14:15.292Z,100982.85
2023-03-29T04:19:16.862Z,100986.98
2023-03-29T04:24:18.375Z,100991.67
2023-03-29T04:29:20.058Z,100997.30
2023-03-29T04:34:21.611Z,101001.64
2023-03-29T04:39:23.084Z,101002.57
2023-03-29T04:44:24.582Z,101005.23
2023-03-29T04:49:26.918Z,101002.17
2023-03-29T04:54:28.443Z,101001.98
2023-03-29T04:59:30.865Z,101001.23
2023-03-29T05:04:33.097Z,101004.75
2023-03-29T05:09:35.701Z,101000.42
2023-03-29T05:14:37.302Z,101006.16
2023-03-29T05:19:38.837Z,101008.40
2023-03-29T05:24:40.400Z,101010.47
2023-03-29T05:29:41.898Z,101015.71
2023-03-29T05:34:43.555Z,101012.75
2023-03-29T05:39:45.435Z,101015.98
2023-03-29T05:44:46.927Z,101016.92
2023-03-29T05:49:48.435Z,101024.42
2023-03-29T05:54:50.673Z,101027.17
2023-03-29T05:59:52.181Z,101019.55
2023-03-29T06:04:55.559Z,101019.08
2023-03-29T06:09:57.090Z,101025.58
2023-03-29T06:15:04.134Z,101023.65
2023-03-29T06:20:10.853Z,101004.88
2023-03-29T06:25:12.563Z,101003.02
2023-03-29T06:30:15.703Z,101007.46
2023-03-29T06:35:18.056Z,101017.77
2023-03-29T06:40:21.392Z,101023.58
2023-03-29T06:45:25.314Z,101032.41
2023-03-29T06:50:29.408Z,101034.36
2023-03-29T06:55:31.780Z,101034.04
2023-03-29T07:00:35.884Z,101034.40
2023-03-29T07:05:40.859Z,101035.27
2023-03-29T07:10:48.018Z,101028.73
2023-03-29T07:15:49.545Z,101028.83
2023-03-29T07:20:52.485Z,101028.30
2023-03-29T07:25:54.457Z,101029.08
2023-03-29T07:31:06.929Z,101028.49
2023-03-29T07:36:09.078Z,101025.84
2023-03-29T07:41:11.051Z,101029.09
2023-03-29T07:46:12.624Z,101026.34
2023-03-29T07:51:14.484Z,101026.57
2023-03-29T07:56:16.420Z,101027.48
2023-03-29T08:01:20.097Z,101022.64
2023-03-29T08:06:22.598Z,101021.56
2023-03-29T08:11:25.185Z,101017.30
2023-03-29T08:16:27.185Z,101009.45
2023-03-29T08:21:28.951Z,101009.45
2023-03-29T08:26:31.146Z,101008.55
2023-03-29T08:31:33.727Z,101006.56
2023-03-29T08:36:35.267Z,101006.29
2023-03-29T08:41:42.656Z,100997.23
2023-03-29T08:46:57.484Z,100991.45
2023-03-29T08:52:02.571Z,100987.70
2023-03-29T08:57:15.569Z,100986.50
2023-03-29T09:02:26.425Z,100991.09
2023-03-29T09:07:28.176Z,100985.27
2023-03-29T09:12:54.916Z,100977.44
2023-03-29T09:18:21.270Z,100978.43
2023-03-29T09:23:42.016Z,100974.63
2023-03-29T09:28:59.993Z,100968.17
2023-03-29T09:34:13.651Z,100956.48
2023-03-29T09:39:17.009Z,100943.83
2023-03-29T09:44:31.238Z,100940.15
2023-03-29T09:49:38.551Z,100930.03
2023-03-29T09:54:41.168Z,100926.34
2023-03-29T09:59:43.814Z,100922.88
2023-03-29T10:04:45.426Z,100920.12
2023-03-29T10:09:50.960Z,100912.61
2023-03-29T10:14:54.417Z,100912.09
2023-03-29T10:19:58.410Z,100901.64
2023-03-29T10:25:00.029Z,100900.64
2023-03-29T10:30:12.325Z,100896.45
2023-03-29T10:35:23.930Z,100895.90
2023-03-29T10:40:25.366Z,100893.30
2023-03-29T10:45:31.338Z,100890.95
2023-03-29T10:50:37.533Z,100886.48
2023-03-29T10:55:53.420Z,100882.77
2023-03-29T11:00:57.155Z,100878.66
2023-03-29T11:06:21.996Z,100882.21
2023-03-29T11:11:58.377Z,100878.46
2023-03-29T11:17:20.826Z,100875.70
2023-03-29T11:22:31.712Z,100868.59
2023-03-29T11:27:44.925Z,100855.53
2023-03-29T11:33:14.284Z,100853.77
2023-03-29T11:38:45.316Z,100838.88
2023-03-29T11:43:56.912Z,100834.02
2023-03-29T11:49:39.660Z,100838.05
2023-03-29T11:55:04.001Z,100833.05
2023-03-29T12:00:49.948Z,100822.84
2023-03-29T12:06:16.915Z,100814.33
2023-03-29T12:11:40.702Z,100809.25
2023-03-29T12:16:48.815Z,100802.14
2023-03-29T12:21:54.551Z,100799.50
2023-03-29T12:27:26.183Z,100796.55
2023-03-29T12:32:47.101Z,100791.68
2023-03-29T12:37:56.811Z,100789.23
2023-03-29T12:43:04.402Z,100785.00
2023-03-29T12:48:07.797Z,100784.80
2023-03-29T12:53:26.827Z,100772.80
2023-03-29T12:59:07.733Z,100770.10
2023-03-29T13:04:20.719Z,100773.20
2023-03-29T13:09:53.270Z,100768.96
2023-03-29T13:15:07.605Z,100767.05
2023-03-29T13:20:59.644Z,100764.54
2023-03-29T13:26:14.831Z,100761.52
2023-03-29T13:31:38.845Z,100752.90
2023-03-29T13:37:28.355Z,100747.42
2023-03-29T13:42:36.401Z,100744.66
2023-03-29T13:47:48.911Z,100744.91
2023-03-29T13:53:27.979Z,100740.34
2023-03-29T13:58:43.245Z,100736.92
2023-03-29T14:03:47.539Z,100731.02
2023-03-29T14:08:49.958Z,100729.18
2023-03-29T14:13:57.125Z,100730.02
2023-03-29T14:19:02.862Z,100726.06
2023-03-29T14:24:04.445Z,100715.88
2023-03-29T14:29:10.050Z,100706.00
2023-03-29T14:34:15.021Z,100707.50
2023-03-29T14:39:19.531Z,100708.05
2023-03-29T14:44:24.162Z,100703.48
2023-03-29T14:49:26.429Z,100708.17
2023-03-29T14:54:34.317Z,100702.13
2023-03-29T14:59:38.347Z,100699.29
2023-03-29T15:04:39.854Z,100697.59
2023-03-29T15:09:41.495Z,100695.31
2023-03-29T15:14:43.316Z,100702.00
2023-03-29T15:19:44.817Z,100699.36
2023-03-29T15:24:48.910Z,100705.30
2023-03-29T15:30:01.383Z,100697.13
2023-03-29T15:35:06.344Z,100699.52
2023-03-29T15:40:16.434Z,100698.23
2023-03-29T15:45:21.372Z,100698.11
2023-03-29T15:50:23.443Z,100693.34
2023-03-29T15:55:26.464Z,100695.40
2023-03-29T16:00:28.751Z,100689.08
2023-03-29T16:05:30.592Z,100693.06
2023-03-29T16:10:32.153Z,100690.88
2023-03-29T16:15:36.796Z,100686.89
2023-03-29T16:20:38.428Z,100681.11
2023-03-29T16:25:40.769Z,100679.66
2023-03-29T16:30:43.469Z,100675.11
2023-03-29T16:35:45.209Z,100672.56
2023-03-29T16:40:47.590Z,100666.81
2023-03-29T16:45:49.136Z,100665.81
2023-03-29T16:50:50.944Z,100668.85
2023-03-29T16:55:52.586Z,100662.75
2023-03-29T17:00:54.523Z,100658.87
2023-03-29T17:05:58.041Z,100655.69
2023-03-29T17:11:00.033Z,100653.84
2023-03-29T17:16:01.978Z,100655.36
2023-03-29T17:21:04.494Z,100657.81
2023-03-29T17:26:07.081Z,100657.66
2023-03-29T17:31:08.836Z,100665.59
2023-03-29T17:36:11.155Z,100663.88
2023-03-29T17:41:12.856Z,100663.27
2023-03-29T17:46:16.666Z,100662.55
2023-03-29T17:51:20.124Z,100670.77
2023-03-29T17:56:23.033Z,100675.81
2023-03-29T18:01:25.425Z,100678.30
2023-03-29T18:06:29.188Z,100679.48
2023-03-29T18:11:31.190Z,100688.36
2023-03-29T18:16:33.928Z,100685.20
2023-03-29T18:21:37.190Z,100691.95
2023-03-29T18:26:39.580Z,100697.42
2023-03-29T18:31:41.323Z,100697.08
2023-03-29T18:36:43.334Z,100687.89
2023-03-29T18:41:45.230Z,100680.65
2023-03-29T18:46:49.830Z,100675.41
2023-03-29T18:51:51.672Z,100671.55
2023-03-29T18:56:53.415Z,100667.11
2023-03-29T19:01:57.746Z,100665.39
2023-03-29T19:07:01.733Z,100677.12
2023-03-29T19:12:03.907Z,100684.77
2023-03-29T19:17:05.415Z,100674.64
2023-03-29T19:22:07.053Z,100667.92
2023-03-29T19:27:11.345Z,100674.40
2023-03-29T19:32:14.216Z,100678.46
2023-03-29T19:37:17.672Z,100677.25
2023-03-29T19:42:19.190Z,100676.56
2023-03-29T19:47:21.241Z,100671.59
2023-03-29T19:52:24.506Z,100671.25
2023-03-29T19:57:26.278Z,100671.58
2023-03-29T20:02:27.807Z,100665.78
2023-03-29T20:07:29.761Z,100660.67
2023-03-29T20:12:32.056Z,100659.64
2023-03-29T20:17:35.547Z,100649.95
2023-03-29T20:22:42.109Z,100649.11
2023-03-29T20:27:45.416Z,100638.87
2023-03-29T20:32:47.177Z,100636.33
2023-03-29T20:37:48.893Z,100627.66
2023-03-29T20:42:50.946Z,100622.94
2023-03-29T20:48:01.972Z,100612.39
2023-03-29T20:53:06.280Z,100605.45
2023-03-29T20:58:07.882Z,100601.89
2023-03-29T21:03:09.924Z,100596.30
2023-03-29T21:08:11.689Z,100589.50
2023-03-29T21:13:13.265Z,100593.84
2023-03-29T21:18:15.762Z,100594.74
2023-03-29T21:23:17.340Z,100595.00
2023-03-29T21:28:18.936Z,100594.19
2023-03-29T21:33:21.081Z,100592.84
2023-03-29T21:38:23.030Z,100588.76
2023-03-29T21:43:24.577Z,100587.74
2023-03-29T21:48:26.489Z,100585.19
2023-03-29T21:53:28.291Z,100582.11
2023-03-29T21:58:29.846Z,100584.16
2023-03-29T22:03:31.393Z,100578.17
2023-03-29T22:08:33.036Z,100576.64
2023-03-29T22:13:36.401Z,100577.31
2023-03-29T22:18:44.198Z,100569.30
2023-03-29T22:23:48.469Z,100561.63
2023-03-29T22:28:51.787Z,100559.39
2023-03-29T22:33:54.065Z,100558.69
2023-03-29T22:38:56.298Z,100557.65
2023-03-29T22:44:01.090Z,100558.50
2023-03-29T22:49:03.181Z,100552.20
2023-03-29T22:54:04.809Z,100553.73
2023-03-29T22:59:06.500Z,100543.13
2023-03-29T23:04:08.567Z,100531.87
2023-03-29T23:09:10.626Z,100525.71
2023-03-29T23:14:12.125Z,100522.61
2023-03-29T23:19:13.653Z,100524.30
2023-03-29T23:24:18.987Z,100526.66
2023-03-29T23:29:21.065Z,100523.58
2023-03-29T23:34:23.075Z,100520.66
2023-03-29T23:39:25.151Z,100509.73
2023-03-29T23:44:26.709Z,100500.52
2023-03-29T23:49:28.521Z,100493.17
2023-03-29T23:54:30.517Z,100497.73
2023-03-29T23:59:37.717Z,100498.91
